Flight Track Log - Related Links

Times and Time Zones

All times are in EDT time to prevent confusion due to time zone crossing. See the EXS606 flight status page for this flight to view local times or setup timezone preferences in your user account.

Time Position Orientation Groundspeed Altitude Reporting Facility
EDT Latitude Longitude Course Direction KTS MPH feet Rate Location/Type
Fri 06:15:00 AM 37.3721 -4.3939 North  Level Estimated
Fri 06:16:00 AM 37.4496 -4.3821 North  Level Estimated
Fri 06:17:00 AM 37.5271 -4.3703 North  Level Estimated
Fri 06:18:00 AM 37.6045 -4.3584 North  Level Estimated
Fri 06:19:00 AM 37.6820 -4.3466 North  Level Estimated
Fri 06:20:00 AM 37.7594 -4.3347 North  Level Estimated
Fri 06:21:00 AM 37.8369 -4.3227 North  Level Estimated
Fri 06:22:00 AM 37.9143 -4.3108 North  Level Estimated
Fri 06:23:00 AM 37.9918 -4.2988 North  Level Estimated
Fri 06:24:00 AM 38.0693 -4.2868 North  Level Estimated
Fri 06:25:00 AM 38.1467 -4.2748 North  Level Estimated
Fri 06:26:00 AM 38.2242 -4.2627 North  Level Estimated
Fri 06:27:00 AM 38.3016 -4.2506 North  Level Estimated
Fri 06:28:00 AM 38.3791 -4.2385 North  Level Estimated
Fri 06:29:00 AM 38.4565 -4.2264 North  Level Estimated
Fri 06:30:00 AM 38.5340 -4.2142 North  Level Estimated
Fri 06:31:00 AM 38.6114 -4.2020 North  Level Estimated
Fri 06:32:00 AM 38.6889 -4.1898 North  Level Estimated
Fri 06:33:00 AM 38.7663 -4.1776 North  Level Estimated
Fri 06:34:00 AM 38.8437 -4.1653 North  Level Estimated
Fri 06:35:00 AM 38.9212 -4.1530 North  Level Estimated
Fri 06:36:00 AM 38.9986 -4.1407 North  Level Estimated
Fri 06:37:00 AM 39.0760 -4.1284 North  Level Estimated
Fri 06:38:00 AM 39.1535 -4.1160 North  Level Estimated
Fri 06:39:00 AM 39.2309 -4.1036 North  Level Estimated
Fri 06:40:00 AM 39.3084 -4.0912 North  Level Estimated
Fri 06:41:00 AM 39.3858 -4.0787 North  Level Estimated
Fri 06:42:00 AM 39.4632 -4.0662 North  Level Estimated
Fri 06:43:00 AM 39.5406 -4.0537 North  Level Estimated
Fri 06:44:00 AM 39.6181 -4.0412 North  Level Estimated
Fri 06:45:00 AM 39.6955 -4.0286 North  Level Estimated
Fri 06:46:00 AM 39.7729 -4.0160 North  Level Estimated
Fri 06:47:00 AM 39.8504 -4.0034 North  Level Estimated
Fri 06:48:00 AM 39.9278 -3.9907 North  Level Estimated
Fri 06:49:00 AM 40.0052 -3.9781 North  Level Estimated
Fri 06:50:00 AM 40.0826 -3.9653 North  Level Estimated
Fri 06:51:00 AM 40.1600 -3.9526 North  Level Estimated
Fri 06:52:00 AM 40.2375 -3.9398 North  Level Estimated
Fri 06:53:00 AM 40.3149 -3.9270 North  Level Estimated
Fri 06:54:00 AM 40.3923 -3.9142 North  Level Estimated
Fri 06:55:00 AM 40.4697 -3.9014 North  Level Estimated
Fri 06:56:00 AM 40.5471 -3.8885 North  Level Estimated
Fri 06:57:00 AM 40.6245 -3.8756 North  Level Estimated
Fri 06:58:00 AM 40.7020 -3.8626 North  Level Estimated
Fri 06:59:00 AM 40.7794 -3.8496 North  Level Estimated
Fri 07:00:00 AM 40.8568 -3.8366 North  Level Estimated
Fri 07:01:00 AM 40.9342 -3.8236 North  Level Estimated
Fri 07:02:00 AM 41.0116 -3.8105 North  Level Estimated
Fri 07:03:00 AM 41.0890 -3.7974 North  Level Estimated
Fri 07:04:00 AM 41.1664 -3.7843 North  Level Estimated
Fri 07:05:00 AM 41.2438 -3.7711 North  Level Estimated
Fri 07:06:00 AM 41.3212 -3.7580 North  Level Estimated
Fri 07:07:00 AM 41.3986 -3.7447 North  Level Estimated
Fri 07:08:00 AM 41.4760 -3.7315 North  Level Estimated
Fri 07:09:00 AM 41.5534 -3.7182 North  Level Estimated
Fri 07:10:00 AM 41.6307 -3.7049 North  Level Estimated
Fri 07:11:00 AM 41.7081 -3.6915 North  Level Estimated
Fri 07:12:00 AM 41.7855 -3.6781 North  Level Estimated
Fri 07:13:00 AM 41.8629 -3.6647 North  Level Estimated
Fri 07:14:00 AM 41.9403 -3.6513 North  Level Estimated
Fri 07:15:00 AM 42.0177 -3.6378 North  Level Estimated
Fri 07:16:00 AM 42.0951 -3.6243 North  Level Estimated
Fri 07:17:00 AM 42.1725 -3.6108 North  Level Estimated
Fri 07:18:00 AM 42.2498 -3.5972 North  Level Estimated
Fri 07:19:00 AM 42.3272 -3.5836 North  Level Estimated
Fri 07:20:00 AM 42.4046 -3.5699 North  Level Estimated
Fri 07:21:00 AM 42.4820 -3.5563 North  Level Estimated
Fri 07:22:00 AM 42.5593 -3.5425 North  Level Estimated
Fri 07:23:00 AM 42.6367 -3.5288 North  Level Estimated
Fri 07:24:00 AM 42.7141 -3.5150 North  Level Estimated
Fri 07:25:00 AM 42.7914 -3.5012 North  Level Estimated
Fri 07:26:00 AM 42.8688 -3.4873 North  Level Estimated
Fri 07:27:00 AM 42.9462 -3.4735 North  Level Estimated
Fri 07:28:00 AM 43.0235 -3.4595 North  Level Estimated
Fri 07:29:00 AM 43.1009 -3.4456 North  Level Estimated
Fri 07:30:00 AM 43.1782 -3.4316 North  Level Estimated
Fri 07:31:00 AM 43.2556 -3.4176 North  Level Estimated
Fri 07:32:00 AM 43.3330 -3.4035 North  Level Estimated
Fri 07:33:00 AM 43.4103 -3.3894 North  Level Estimated
Fri 07:34:00 AM 43.4877 -3.3753 North  Level Estimated
Fri 07:35:00 AM 43.5650 -3.3611 North  Level Estimated
Fri 07:36:00 AM 43.6424 -3.3469 North  Level Estimated
Fri 07:37:00 AM 43.7197 -3.3327 North  Level Estimated
Fri 07:38:00 AM 43.7971 -3.3184 North  Level Estimated
Fri 07:39:00 AM 43.8744 -3.3041 North  Level Estimated
Fri 07:40:00 AM 43.9518 -3.2897 North  Level Estimated
Fri 07:41:00 AM 44.0291 -3.2754 North  Level Estimated
Fri 07:42:00 AM 44.1064 -3.2609 North  Level Estimated
Fri 07:43:00 AM 44.1838 -3.2464 North  Level Estimated
Fri 07:44:00 AM 44.2611 -3.2320 North  Level Estimated
Fri 07:45:00 AM 44.3384 -3.2174 North  Level Estimated
Fri 07:46:00 AM 44.4158 -3.2028 North  Level Estimated
Fri 07:47:00 AM 44.4931 -3.1882 North  Level Estimated
Fri 07:48:00 AM 44.5704 -3.1735 North  Level Estimated
Fri 07:49:00 AM 44.6478 -3.1588 North  Level Estimated
Fri 07:50:00 AM 44.7251 -3.1441 North  Level Estimated
Fri 07:51:00 AM 44.8024 -3.1293 North  Level Estimated
Fri 07:52:00 AM 44.8797 -3.1145 North  Level Estimated
Fri 07:53:00 AM 44.9570 -3.0997 North  Level Estimated
Fri 07:54:00 AM 45.0344 -3.0848 North  Level Estimated
Fri 07:55:00 AM 45.1117 -3.0699 North  Level Estimated
Fri 07:56:00 AM 45.1890 -3.0549 North  Level Estimated
Fri 07:57:00 AM 45.2663 -3.0399 North  Level Estimated
Fri 07:58:00 AM 45.3436 -3.0248 North  Level Estimated
Fri 07:59:00 AM 45.4209 -3.0097 North  Level Estimated
Fri 08:00:00 AM 45.4982 -2.9946 North  Level Estimated
Fri 08:01:00 AM 45.5755 -2.9794 North  Level Estimated
Fri 08:02:00 AM 45.6528 -2.9642 North  Level Estimated
Fri 08:03:00 AM 45.7301 -2.9489 North  Level Estimated
Fri 08:04:00 AM 45.8074 -2.9336 North  Level Estimated
Fri 08:05:00 AM 45.8847 -2.9182 North  Level Estimated
Fri 08:06:00 AM 45.9620 -2.9028 North  Level Estimated
Fri 08:07:00 AM 46.0393 -2.8874 North  Level Estimated
Fri 08:08:00 AM 46.1166 -2.8719 North  Level Estimated
Fri 08:09:00 AM 46.1939 -2.8564 North  Level Estimated
Fri 08:10:00 AM 46.2711 -2.8408 North  Level Estimated
Fri 08:11:00 AM 46.3484 -2.8252 North  Level Estimated
Fri 08:12:00 AM 46.4257 -2.8096 North  Level Estimated
Fri 08:13:00 AM 46.5030 -2.7939 North  Level Estimated
Fri 08:14:00 AM 46.5802 -2.7781 North  Level Estimated
Fri 08:15:00 AM 46.6575 -2.7623 North  Level Estimated
Fri 08:16:00 AM 46.7348 -2.7465 North  Level Estimated
Fri 08:17:00 AM 46.8120 -2.7306 North  Level Estimated
Fri 08:18:00 AM 46.8893 -2.7147 North  Level Estimated
Fri 08:19:00 AM 46.9666 -2.6987 North  Level Estimated
Fri 08:20:00 AM 47.0438 -2.6827 North  Level Estimated
Fri 08:21:00 AM 47.1211 -2.6667 North  Level Estimated
Fri 08:22:00 AM 47.1984 -2.6505 North  Level Estimated
Fri 08:23:00 AM 47.2756 -2.6344 North  Level Estimated
Fri 08:24:00 AM 47.3529 -2.6182 North  Level Estimated
Fri 08:25:00 AM 47.4301 -2.6019 North  Level Estimated
Fri 08:26:00 AM 47.5074 -2.5856 North  Level Estimated
Fri 08:27:00 AM 47.5846 -2.5693 North  Level Estimated
Fri 08:28:00 AM 47.6618 -2.5529 North  Level Estimated
Fri 08:29:00 AM 47.7391 -2.5364 North  Level Estimated
Fri 08:30:00 AM 47.8163 -2.5200 North  Level Estimated
Fri 08:31:00 AM 47.8936 -2.5034 North  Level Estimated
Fri 08:32:00 AM 47.9708 -2.4868 North  Level Estimated
Fri 08:33:00 AM 48.0480 -2.4702 North  Level Estimated
Fri 08:34:00 AM 48.1253 -2.4535 North  Level Estimated
Fri 08:35:00 AM 48.2025 -2.4368 North  Level Estimated
Fri 08:36:00 AM 48.2797 -2.4200 North  Level Estimated
Fri 08:37:00 AM 48.3569 -2.4031 North  Level Estimated
Fri 08:38:00 AM 48.4342 -2.3862 North  Level Estimated
Fri 08:39:00 AM 48.5114 -2.3693 North  Level Estimated
Fri 08:40:00 AM 48.5886 -2.3523 North  Level Estimated
Fri 08:41:00 AM 48.6658 -2.3352 North  Level Estimated
Fri 08:42:00 AM 48.7430 -2.3181 North  Level Estimated
Fri 08:43:00 AM 48.8202 -2.3010 North  Level Estimated
Fri 08:44:00 AM 48.8974 -2.2838 North  Level Estimated
Fri 08:45:00 AM 48.9746 -2.2665 North  Level Estimated
Fri 08:46:00 AM 49.0518 -2.2492 North  Level Estimated
Fri 08:47:00 AM 49.1290 -2.2318 North  Level Estimated
Fri 08:48:00 AM 49.2062 -2.2144 North  Level Estimated
Fri 08:49:00 AM 49.2834 -2.1969 North  Level Estimated
Fri 08:50:00 AM 49.3606 -2.1794 North  Level Estimated
Fri 08:51:00 AM 49.4378 -2.1618 North  Level Estimated
Fri 08:52:00 AM 49.5149 -2.1442 North  Level Estimated
Fri 08:53:00 AM 49.5921 -2.1265 North  Level Estimated
Fri 08:54:00 AM 49.6693 -2.1087 North  Level Estimated
Fri 08:55:00 AM 49.7465 -2.0909 North  Level Estimated
Fri 08:56:00 AM 49.8237 -2.0730 North  Level Estimated
Fri 08:57:00 AM 49.9008 -2.0551 North  Level Estimated
Fri 08:58:00 AM 49.9780 -2.0371 North  Level Estimated
Fri 08:59:00 AM 50.0552 -2.0191 North  Level Estimated
Fri 09:00:00 AM 50.1323 -2.0010 North  Level Estimated
Fri 09:01:00 AM 50.2095 -1.9828 North  Level Estimated

Login

Don't have an account? Register now (free) for customized features, flight alerts, and more!